Time;durP1;ratioP1;P1;durP2;ratioP2;P2;SDS_P1;SDS_P2;PMS_P1;PMS_P2;Temp;Humidity;BMP_temperature;BMP_pressure;BME280_temperature;BME280_humidity;BME280_pressure;Samples;Min_cycle;Max_cycle;Signal;HPM_P1;HPM_P2
2022/09/23 04:23:36;;;;;;;;;;;20.80;74.80;;;;;;4989795;28;20012;-73
2022/09/23 04:26:03;;;;;;;;;;;20.70;74.80;;;;;;4994989;28;19926;-73
2022/09/23 04:28:30;;;;;;;;;;;20.70;74.90;;;;;;4994862;28;19936;-73
2022/09/23 04:30:57;;;;;;;;;;;20.70;74.90;;;;;;4994776;28;19968;-72
2022/09/23 04:33:24;;;;;;;;;;;20.80;75.10;;;;;;4994782;28;20021;-73
2022/09/23 04:35:51;;;;;;;;;;;20.70;75.00;;;;;;4994853;28;20012;-73
2022/09/23 04:38:18;;;;;;;;;;;20.80;75.10;;;;;;4994778;28;19925;-73
2022/09/23 04:40:46;;;;;;;;;;;20.70;75.00;;;;;;4994701;28;20472;-73
2022/09/23 04:43:14;;;;;;;;;;;20.80;75.20;;;;;;4994722;28;19925;-73
2022/09/23 04:45:41;;;;;;;;;;;20.70;75.10;;;;;;4994373;28;19925;-73
2022/09/23 04:48:08;;;;;;;;;;;20.80;75.40;;;;;;4994660;28;20300;-73
2022/09/23 04:50:35;;;;;;;;;;;20.80;75.50;;;;;;4994796;28;19951;-77
2022/09/23 04:53:01;;;;;;;;;;;20.80;75.40;;;;;;4994948;28;20020;-76
2022/09/23 04:55:28;;;;;;;;;;;20.80;75.00;;;;;;4994719;28;19926;-76
2022/09/23 04:57:57;;;;;;;;;;;20.80;74.80;;;;;;4994914;28;19987;-76
2022/09/23 05:00:25;;;;;;;;;;;20.70;74.50;;;;;;4995121;28;19973;-73
2022/09/23 05:02:52;;;;;;;;;;;20.70;74.50;;;;;;4994842;28;19926;-74
2022/09/23 05:05:20;;;;;;;;;;;20.70;74.50;;;;;;4994746;28;19933;-76
2022/09/23 05:07:46;;;;;;;;;;;20.70;74.50;;;;;;4994603;28;20385;-76
2022/09/23 05:10:13;;;;;;;;;;;20.70;74.50;;;;;;4994444;28;19968;-73
2022/09/23 05:12:40;;;;;;;;;;;20.70;74.40;;;;;;4995442;28;19925;-74
2022/09/23 05:15:08;;;;;;;;;;;20.60;74.10;;;;;;4998353;28;19925;-75
2022/09/23 05:17:36;;;;;;;;;;;20.70;73.90;;;;;;4998195;28;20028;-72
2022/09/23 05:20:03;;;;;;;;;;;20.60;73.60;;;;;;4998277;28;19926;-74
2022/09/23 05:22:30;;;;;;;;;;;20.70;73.50;;;;;;4997991;28;19925;-74
2022/09/23 05:24:58;;;;;;;;;;;20.60;73.30;;;;;;5001015;28;20024;-73
2022/09/23 05:27:25;;;;;;;;;;;20.60;73.10;;;;;;5002870;28;19926;-74
2022/09/23 05:29:52;;;;;;;;;;;20.60;72.80;;;;;;5002457;28;19933;-74
2022/09/23 05:32:20;;;;;;;;;;;20.60;72.70;;;;;;5001947;28;20358;-74
2022/09/23 05:34:47;;;;;;;;;;;20.60;72.60;;;;;;4997655;28;20484;-74
2022/09/23 05:37:14;;;;;;;;;;;20.60;72.40;;;;;;4998212;28;19976;-76
2022/09/23 05:39:41;;;;;;;;;;;20.60;72.30;;;;;;4998073;28;20408;-74
2022/09/23 05:42:08;;;;;;;;;;;20.60;72.10;;;;;;4997659;28;19933;-74
2022/09/23 05:44:35;;;;;;;;;;;20.70;72.20;;;;;;4998343;28;19926;-76
2022/09/23 05:47:02;;;;;;;;;;;20.70;72.10;;;;;;4997903;28;19965;-77
2022/09/23 05:49:30;;;;;;;;;;;20.70;71.90;;;;;;4997400;28;19926;-76
2022/09/23 05:51:57;;;;;;;;;;;20.70;71.80;;;;;;4998181;28;19926;-77
2022/09/23 05:54:24;;;;;;;;;;;20.70;71.80;;;;;;4998007;28;19936;-77
2022/09/23 05:56:50;;;;;;;;;;;20.70;71.80;;;;;;4997749;28;20013;-77
2022/09/23 05:59:17;;;;;;;;;;;20.70;71.60;;;;;;4997608;28;19964;-76
2022/09/23 06:01:44;;;;;;;;;;;20.70;71.50;;;;;;4997481;28;19929;-76
2022/09/23 06:04:12;;;;;;;;;;;20.70;71.50;;;;;;4997270;28;19932;-76
2022/09/23 06:06:41;;;;;;;;;;;20.70;71.50;;;;;;4997451;28;19926;-76
2022/09/23 06:09:10;;;;;;;;;;;20.70;71.30;;;;;;4997410;28;19925;-76
2022/09/23 06:11:37;;;;;;;;;;;20.70;71.30;;;;;;4997320;28;19975;-76
2022/09/23 06:14:03;;;;;;;;;;;20.70;71.10;;;;;;4997373;28;19965;-76
2022/09/23 06:16:31;;;;;;;;;;;20.70;71.00;;;;;;4997493;28;19930;-76
2022/09/23 06:18:59;;;;;;;;;;;20.70;71.00;;;;;;4997274;28;20293;-76
2022/09/23 06:21:25;;;;;;;;;;;20.70;70.90;;;;;;4997109;28;19948;-76
2022/09/23 06:23:55;;;;;;;;;;;20.70;70.80;;;;;;4996267;28;19925;-76
2022/09/23 06:26:21;;;;;;;;;;;20.70;70.70;;;;;;4996801;28;19925;-76
2022/09/23 06:28:49;;;;;;;;;;;20.70;70.70;;;;;;4997110;28;19980;-76
2022/09/23 06:31:16;;;;;;;;;;;20.70;70.60;;;;;;4996939;28;20016;-76
2022/09/23 06:33:43;;;;;;;;;;;20.70;70.60;;;;;;4996940;28;20017;-76
2022/09/23 06:36:10;;;;;;;;;;;20.70;70.50;;;;;;4996969;28;19932;-76
2022/09/23 06:38:39;;;;;;;;;;;20.70;70.40;;;;;;4997139;28;19926;-76
2022/09/23 06:41:07;;;;;;;;;;;20.70;70.30;;;;;;4996789;28;19976;-76
2022/09/23 06:43:34;;;;;;;;;;;20.70;70.20;;;;;;4996503;28;20403;-76
2022/09/23 06:46:02;;;;;;;;;;;20.70;70.20;;;;;;4996519;28;19968;-76
2022/09/23 06:48:29;;;;;;;;;;;20.70;70.10;;;;;;4996765;28;20017;-76
2022/09/23 06:51:00;;;;;;;;;;;20.70;70.10;;;;;;4996329;28;19932;-76
2022/09/23 06:53:27;;;;;;;;;;;20.70;69.90;;;;;;4996380;28;19929;-76
2022/09/23 06:55:57;;;;;;;;;;;20.70;69.80;;;;;;4996190;28;20388;-76
2022/09/23 06:58:26;;;;;;;;;;;20.70;69.80;;;;;;4996590;28;20372;-76
2022/09/23 07:00:53;;;;;;;;;;;20.70;69.70;;;;;;4996457;28;19926;-76
2022/09/23 07:03:20;;;;;;;;;;;20.70;69.60;;;;;;4996397;28;19965;-76
2022/09/23 07:05:47;;;;;;;;;;;20.70;69.50;;;;;;4996317;28;19926;-76
2022/09/23 07:08:14;;;;;;;;;;;20.70;69.40;;;;;;4996372;28;19926;-76
2022/09/23 07:10:41;;;;;;;;;;;20.70;69.30;;;;;;4996038;28;20400;-77
2022/09/23 07:13:07;;;;;;;;;;;20.70;69.20;;;;;;4996197;28;19932;-78
2022/09/23 07:15:35;;;;;;;;;;;20.70;69.10;;;;;;4996340;28;19926;-77
2022/09/23 07:18:02;;;;;;;;;;;20.70;69.00;;;;;;4996194;28;20016;-77
2022/09/23 07:20:30;;;;;;;;;;;20.70;68.90;;;;;;4996299;28;19933;-77
2022/09/23 07:22:57;;;;;;;;;;;20.70;68.70;;;;;;4995991;28;19926;-77
2022/09/23 07:25:24;;;;;;;;;;;20.70;68.50;;;;;;4996059;28;19926;-77
2022/09/23 07:27:51;;;;;;;;;;;20.60;68.40;;;;;;4996015;28;19926;-77
2022/09/23 07:30:17;;;;;;;;;;;20.70;68.50;;;;;;4995940;28;19976;-77
2022/09/23 07:32:45;;;;;;;;;;;20.70;68.50;;;;;;4995855;28;19970;-77
2022/09/23 07:35:12;;;;;;;;;;;20.70;68.50;;;;;;4995689;28;19925;-77
2022/09/23 07:37:39;;;;;;;;;;;20.70;68.50;;;;;;4995765;28;19961;-77
2022/09/23 07:40:06;;;;;;;;;;;20.70;68.50;;;;;;4995408;28;19964;-77
2022/09/23 07:42:32;;;;;;;;;;;20.70;68.50;;;;;;4995379;28;20016;-77
2022/09/23 07:44:59;;;;;;;;;;;20.70;68.20;;;;;;4995362;28;19925;-77
2022/09/23 07:47:26;;;;;;;;;;;20.70;68.00;;;;;;4995317;28;19961;-77
2022/09/23 07:49:54;;;;;;;;;;;20.60;67.80;;;;;;4995599;28;20336;-77
2022/09/23 07:52:21;;;;;;;;;;;20.70;67.80;;;;;;4995447;28;19926;-78
2022/09/23 07:54:47;;;;;;;;;;;20.70;67.60;;;;;;4995427;28;20282;-78
2022/09/23 07:57:14;;;;;;;;;;;20.70;67.50;;;;;;4995417;28;19926;-77
2022/09/23 07:59:42;;;;;;;;;;;20.70;67.30;;;;;;4995585;28;20017;-77
2022/09/23 08:02:09;;;;;;;;;;;20.70;67.10;;;;;;4995013;28;19926;-77
2022/09/23 08:04:36;;;;;;;;;;;20.70;67.00;;;;;;4995349;28;19926;-77
2022/09/23 08:07:04;;;;;;;;;;;20.60;66.80;;;;;;4995076;28;20025;-77
2022/09/23 08:09:32;;;;;;;;;;;20.70;66.80;;;;;;4995284;28;20136;-77
2022/09/23 08:11:59;;;;;;;;;;;20.70;66.60;;;;;;4995190;28;19933;-77
2022/09/23 08:14:26;;;;;;;;;;;20.70;66.50;;;;;;4995160;28;19926;-77
2022/09/23 08:16:53;;;;;;;;;;;20.70;66.40;;;;;;4995218;28;19926;-77
2022/09/23 08:19:20;;;;;;;;;;;20.70;66.20;;;;;;4995076;28;19932;-77
2022/09/23 08:21:47;;;;;;;;;;;20.70;66.10;;;;;;4994968;28;19926;-77
2022/09/23 08:24:16;;;;;;;;;;;20.70;66.00;;;;;;4994925;28;19932;-77
2022/09/23 08:26:42;;;;;;;;;;;20.70;65.80;;;;;;4995102;28;19925;-77
2022/09/23 08:29:11;;;;;;;;;;;20.70;65.70;;;;;;4994981;28;19961;-77
2022/09/23 08:31:38;;;;;;;;;;;20.70;65.60;;;;;;4994584;28;20013;-77
2022/09/23 08:34:05;;;;;;;;;;;20.70;65.40;;;;;;4994902;28;19971;-77
2022/09/23 08:36:32;;;;;;;;;;;20.70;65.40;;;;;;4994842;28;20012;-77
2022/09/23 08:38:59;;;;;;;;;;;20.70;65.20;;;;;;4994892;28;19932;-77
2022/09/23 08:41:32;;;;;;;;;;;20.70;65.10;;;;;;4994754;28;19981;-77
2022/09/23 08:44:02;;;;;;;;;;;20.70;65.00;;;;;;4994833;28;19976;-78
2022/09/23 08:46:31;;;;;;;;;;;20.70;64.90;;;;;;4994680;28;20333;-77
2022/09/23 08:48:59;;;;;;;;;;;20.70;64.80;;;;;;4993930;28;20023;-77
2022/09/23 08:51:30;;;;;;;;;;;20.60;64.50;;;;;;4994784;28;20301;-77
2022/09/23 08:53:58;;;;;;;;;;;20.70;64.50;;;;;;4994386;28;19932;-77
2022/09/23 08:56:24;;;;;;;;;;;20.70;64.40;;;;;;4994551;28;19926;-77
2022/09/23 08:58:59;;;;;;;;;;;20.70;64.30;;;;;;4994667;28;19933;-77
2022/09/23 09:01:32;;;;;;;;;;;20.70;64.20;;;;;;4994596;28;19933;-77
2022/09/23 09:04:00;;;;;;;;;;;20.70;64.10;;;;;;4994645;28;19926;-77
2022/09/23 09:06:30;;;;;;;;;;;20.70;64.00;;;;;;4994509;28;20017;-76
2022/09/23 09:08:59;;;;;;;;;;;20.60;63.70;;;;;;4994540;28;19930;-77
2022/09/23 09:11:30;;;;;;;;;;;20.70;63.70;;;;;;4994492;28;20025;-77
2022/09/23 09:14:00;;;;;;;;;;;20.70;63.70;;;;;;4994220;28;20340;-77
2022/09/23 09:16:38;;;;;;;;;;;20.70;63.50;;;;;;4994104;28;20373;-77
2022/09/23 09:19:06;;;;;;;;;;;20.70;63.40;;;;;;4994563;28;19948;-77
2022/09/23 09:21:36;;;;;;;;;;;20.70;63.30;;;;;;4994470;28;19925;-77
2022/09/23 09:24:04;;;;;;;;;;;20.70;63.20;;;;;;4994341;28;19926;-77
2022/09/23 09:26:33;;;;;;;;;;;20.70;63.20;;;;;;4994191;28;20029;-77
2022/09/23 09:29:03;;;;;;;;;;;20.70;63.10;;;;;;4994334;28;19926;-77
2022/09/23 09:31:32;;;;;;;;;;;20.70;63.00;;;;;;4997782;28;20020;-75
2022/09/23 09:34:02;;;;;;;;;;;20.70;62.90;;;;;;4998637;28;20025;-75
2022/09/23 09:36:34;;;;;;;;;;;20.70;62.80;;;;;;4999321;28;19925;-74
2022/09/23 09:39:01;;;;;;;;;;;20.70;62.80;;;;;;5000545;28;19973;-74
2022/09/23 09:41:30;;;;;;;;;;;20.70;62.70;;;;;;4998267;28;19925;-74
2022/09/23 09:43:58;;;;;;;;;;;20.70;62.60;;;;;;4996245;28;19955;-74
2022/09/23 09:46:31;;;;;;;;;;;20.70;62.80;;;;;;4997985;28;20321;-76
2022/09/23 09:49:00;;;;;;;;;;;20.80;63.10;;;;;;4996942;28;20293;-77
2022/09/23 09:51:28;;;;;;;;;;;20.80;63.20;;;;;;4996421;28;19926;-77
2022/09/23 09:53:55;;;;;;;;;;;20.80;63.20;;;;;;4996729;28;20016;-77
2022/09/23 09:56:26;;;;;;;;;;;20.80;63.20;;;;;;4996819;28;19925;-75
2022/09/23 09:58:54;;;;;;;;;;;20.80;63.20;;;;;;4997083;28;20340;-74
2022/09/23 10:01:22;;;;;;;;;;;20.90;63.40;;;;;;5000746;28;20009;-77
2022/09/23 10:03:52;;;;;;;;;;;20.90;63.50;;;;;;5000659;28;19926;-76
2022/09/23 10:06:20;;;;;;;;;;;20.90;63.50;;;;;;5000323;28;20020;-76
2022/09/23 10:08:48;;;;;;;;;;;20.80;63.40;;;;;;5000323;28;20280;-74
2022/09/23 10:11:16;;;;;;;;;;;20.80;63.40;;;;;;4999999;28;20009;-76
2022/09/23 10:14:00;;;;;;;;;;;20.90;63.60;;;;;;5000269;28;20016;-76
2022/09/23 10:16:26;;;;;;;;;;;20.90;63.60;;;;;;5000372;28;19926;-76
2022/09/23 10:18:55;;;;;;;;;;;20.90;63.70;;;;;;5000399;28;20020;-76
2022/09/23 10:21:23;;;;;;;;;;;20.90;63.80;;;;;;5000508;28;19926;-77
2022/09/23 10:23:52;;;;;;;;;;;20.90;63.80;;;;;;4999707;28;20012;-77
2022/09/23 10:26:25;;;;;;;;;;;20.90;64.00;;;;;;5001968;28;19925;-77
2022/09/23 10:28:54;;;;;;;;;;;20.90;64.00;;;;;;5003480;28;20448;-75
2022/09/23 10:31:24;;;;;;;;;;;20.90;64.10;;;;;;5001729;28;19976;-75
2022/09/23 10:33:53;;;;;;;;;;;20.90;64.20;;;;;;4997393;28;19933;-77
2022/09/23 10:36:21;;;;;;;;;;;20.90;64.30;;;;;;4997015;28;19926;-77
2022/09/23 10:38:49;;;;;;;;;;;20.90;64.40;;;;;;5002543;28;20012;-76
2022/09/23 10:47:06;;;;;;;;;;;21.00;64.80;;;;;;4999497;28;19928;-77
2022/09/23 10:49:50;;;;;;;;;;;21.00;65.00;;;;;;4999119;28;19989;-76
2022/09/23 10:52:26;;;;;;;;;;;21.00;65.10;;;;;;4998648;28;19984;-76
2022/09/23 10:54:58;;;;;;;;;;;21.00;65.20;;;;;;4998557;28;19926;-78
2022/09/23 10:57:40;;;;;;;;;;;21.00;65.30;;;;;;4998954;28;19992;-77
2022/09/23 11:00:22;;;;;;;;;;;21.00;65.40;;;;;;4998746;28;19936;-77
2022/09/23 11:03:09;;;;;;;;;;;21.00;65.50;;;;;;4998675;28;19979;-77
2022/09/23 11:05:41;;;;;;;;;;;21.00;65.60;;;;;;4995468;28;19926;-77
2022/09/23 11:08:17;;;;;;;;;;;21.00;65.70;;;;;;4998553;28;20445;-76
2022/09/23 11:11:03;;;;;;;;;;;21.00;65.80;;;;;;4998486;28;19933;-77
2022/09/23 11:13:36;;;;;;;;;;;21.00;65.80;;;;;;4999371;28;19925;-74
2022/09/23 11:16:08;;;;;;;;;;;21.00;65.90;;;;;;4999564;28;19990;-76
2022/09/23 11:18:45;;;;;;;;;;;21.00;65.90;;;;;;4996245;28;19926;-77
2022/09/23 11:21:37;;;;;;;;;;;21.00;66.00;;;;;;4996154;28;19933;-76
2022/09/23 11:24:16;;;;;;;;;;;21.00;66.10;;;;;;4995922;28;19926;-76
2022/09/23 11:26:52;;;;;;;;;;;21.00;66.40;;;;;;4996096;28;19957;-76
2022/09/23 11:29:29;;;;;;;;;;;21.10;66.70;;;;;;4996144;28;20441;-76
2022/09/23 11:32:02;;;;;;;;;;;21.10;66.70;;;;;;4996101;28;19936;-75
2022/09/23 11:34:37;;;;;;;;;;;21.10;66.90;;;;;;4995955;28;19932;-76
2022/09/23 11:37:08;;;;;;;;;;;21.10;67.10;;;;;;4995530;28;20337;-76
2022/09/23 11:39:37;;;;;;;;;;;21.10;67.30;;;;;;4995829;28;20028;-77
2022/09/23 11:42:11;;;;;;;;;;;21.20;67.60;;;;;;4995380;28;20454;-77
2022/09/23 11:44:40;;;;;;;;;;;21.10;67.60;;;;;;4996297;28;19949;-76
2022/09/23 11:47:08;;;;;;;;;;;21.10;67.70;;;;;;4995769;28;20308;-77
2022/09/23 11:49:38;;;;;;;;;;;21.20;68.00;;;;;;4995319;28;20296;-77
2022/09/23 11:52:06;;;;;;;;;;;21.20;68.10;;;;;;4995393;28;20304;-76
2022/09/23 11:54:38;;;;;;;;;;;21.20;68.20;;;;;;4995416;28;20024;-76
2022/09/23 11:57:09;;;;;;;;;;;21.20;68.40;;;;;;4995552;28;19925;-77
2022/09/23 11:59:39;;;;;;;;;;;21.20;68.50;;;;;;4997020;28;19933;-73
2022/09/23 12:02:12;;;;;;;;;;;21.10;68.60;;;;;;4998912;28;20460;-72
2022/09/23 12:04:42;;;;;;;;;;;21.20;69.60;;;;;;4996268;28;20432;-73
2022/09/23 12:07:12;;;;;;;;;;;21.20;69.10;;;;;;4995133;28;20381;-74
2022/09/23 12:09:47;;;;;;;;;;;21.20;69.10;;;;;;4995300;28;19926;-74
2022/09/23 12:12:17;;;;;;;;;;;21.20;69.10;;;;;;4995218;28;19932;-74
2022/09/23 12:14:49;;;;;;;;;;;21.20;69.10;;;;;;4995384;28;19926;-73
2022/09/23 12:17:22;;;;;;;;;;;21.20;69.10;;;;;;4995235;28;19933;-73
2022/09/23 12:20:02;;;;;;;;;;;21.20;69.10;;;;;;4995807;28;20389;-73
2022/09/23 12:22:36;;;;;;;;;;;21.20;69.10;;;;;;4996747;28;20018;-73
2022/09/23 12:25:13;;;;;;;;;;;21.20;69.30;;;;;;4996873;28;19948;-72
2022/09/23 12:27:44;;;;;;;;;;;21.20;69.50;;;;;;4996985;28;19957;-72
2022/09/23 12:30:14;;;;;;;;;;;21.20;69.70;;;;;;4995887;28;19926;-72
2022/09/23 12:32:41;;;;;;;;;;;21.20;69.90;;;;;;4995829;28;20377;-72
2022/09/23 12:35:20;;;;;;;;;;;21.20;70.20;;;;;;4995174;28;19980;-71
2022/09/23 12:37:48;;;;;;;;;;;21.30;70.50;;;;;;4994742;28;19937;-72
2022/09/23 12:40:20;;;;;;;;;;;21.30;70.70;;;;;;4994852;28;20377;-72
2022/09/23 12:42:47;;;;;;;;;;;21.30;70.90;;;;;;4994339;28;19926;-75
2022/09/23 12:45:19;;;;;;;;;;;21.30;71.20;;;;;;4995154;28;19932;-72
2022/09/23 12:47:46;;;;;;;;;;;21.30;71.40;;;;;;4994683;28;20016;-72
2022/09/23 12:50:31;;;;;;;;;;;21.30;71.70;;;;;;4994708;28;20008;-72
2022/09/23 12:53:17;;;;;;;;;;;21.30;71.80;;;;;;4994529;28;19936;-73
2022/09/23 12:55:50;;;;;;;;;;;21.30;72.10;;;;;;4994109;28;19926;-73
2022/09/23 12:58:31;;;;;;;;;;;21.40;72.50;;;;;;4994315;28;20377;-73
2022/09/23 13:01:06;;;;;;;;;;;21.40;72.80;;;;;;4994183;28;19969;-73
2022/09/23 13:09:01;;;;;;;;;;;21.40;73.40;;;;;;4994852;28;19929;-73
2022/09/23 13:11:31;;;;;;;;;;;21.40;73.60;;;;;;4994094;28;19934;-73
2022/09/23 13:14:00;;;;;;;;;;;21.40;73.80;;;;;;4994190;28;20021;-73
2022/09/23 13:16:29;;;;;;;;;;;21.50;74.10;;;;;;4994412;28;19926;-76
2022/09/23 13:18:57;;;;;;;;;;;21.50;74.10;;;;;;4994677;28;19932;-76
2022/09/23 13:21:42;;;;;;;;;;;21.50;74.20;;;;;;4994932;28;20050;-76
2022/09/23 13:24:19;;;;;;;;;;;21.50;74.20;;;;;;4996416;28;19965;-77
2022/09/23 13:26:49;;;;;;;;;;;21.50;74.30;;;;;;4997647;28;19956;-76
2022/09/23 13:29:18;;;;;;;;;;;21.50;75.00;;;;;;4997758;28;20416;-77
2022/09/23 13:31:45;;;;;;;;;;;21.50;74.30;;;;;;5000745;28;19933;-75
2022/09/23 13:34:14;;;;;;;;;;;21.50;74.30;;;;;;5003192;28;19926;-75
2022/09/23 13:36:44;;;;;;;;;;;21.50;74.30;;;;;;5005669;28;19926;-76
2022/09/23 13:39:15;;;;;;;;;;;21.50;74.30;;;;;;5005139;28;20369;-75
2022/09/23 13:41:44;;;;;;;;;;;21.50;74.30;;;;;;5005146;28;19926;-76
2022/09/23 13:44:19;;;;;;;;;;;21.50;74.30;;;;;;5005317;28;19926;-76
2022/09/23 13:46:47;;;;;;;;;;;21.50;74.30;;;;;;5005492;28;20012;-76
2022/09/23 13:49:21;;;;;;;;;;;21.50;74.30;;;;;;5005518;28;19925;-77
2022/09/23 13:51:48;;;;;;;;;;;21.50;74.30;;;;;;5004364;28;19932;-76
2022/09/23 13:54:28;;;;;;;;;;;21.40;74.20;;;;;;5005166;28;19926;-76
2022/09/23 13:56:56;;;;;;;;;;;21.40;74.20;;;;;;5001828;28;19948;-76
2022/09/23 13:59:26;;;;;;;;;;;21.50;74.30;;;;;;5004471;28;20012;-76
2022/09/23 14:02:02;;;;;;;;;;;21.40;74.20;;;;;;5005847;28;19975;-77
2022/09/23 14:04:29;;;;;;;;;;;21.40;74.20;;;;;;5004201;28;19994;-76
2022/09/23 14:06:56;;;;;;;;;;;21.40;74.20;;;;;;5004393;28;19925;-76
2022/09/23 14:09:26;;;;;;;;;;;21.40;74.20;;;;;;5004918;28;19925;-77
2022/09/23 14:11:54;;;;;;;;;;;21.40;74.20;;;;;;5001162;28;19932;-77
2022/09/23 14:14:21;;;;;;;;;;;21.40;74.20;;;;;;5003148;28;19925;-77
2022/09/23 14:16:50;;;;;;;;;;;21.40;74.20;;;;;;5003584;28;19933;-77
2022/09/23 14:19:18;;;;;;;;;;;21.40;74.20;;;;;;5001599;28;19925;-77
2022/09/23 14:21:48;;;;;;;;;;;21.40;74.20;;;;;;5002803;28;20017;-76
2022/09/23 14:24:15;;;;;;;;;;;21.40;74.30;;;;;;4999896;28;19932;-78
2022/09/23 14:26:43;;;;;;;;;;;21.40;74.20;;;;;;4999834;28;20012;-78
2022/09/23 14:29:13;;;;;;;;;;;21.40;74.20;;;;;;4999627;28;19925;-77
2022/09/23 14:31:40;;;;;;;;;;;21.40;74.10;;;;;;5000291;28;19933;-77
2022/09/23 14:34:22;;;;;;;;;;;21.40;74.10;;;;;;5000275;28;19925;-77
2022/09/23 14:39:34;;;;;;;;;;;21.30;74.00;;;;;;4997397;28;20296;-77
2022/09/23 14:42:01;;;;;;;;;;;21.30;74.00;;;;;;5000071;28;19949;-77
2022/09/23 14:44:32;;;;;;;;;;;21.30;74.00;;;;;;4999594;28;20404;-76
2022/09/23 14:46:59;;;;;;;;;;;21.30;74.00;;;;;;4998988;28;19929;-76
2022/09/23 14:49:26;;;;;;;;;;;21.30;74.00;;;;;;4999754;28;19932;-76
2022/09/23 14:51:55;;;;;;;;;;;21.30;74.00;;;;;;4999678;28;19925;-76
2022/09/23 14:54:32;;;;;;;;;;;21.30;74.00;;;;;;4998951;28;19926;-74
2022/09/23 14:56:59;;;;;;;;;;;21.30;74.00;;;;;;4999344;28;20297;-74
2022/09/23 14:59:27;;;;;;;;;;;21.30;74.00;;;;;;4999447;28;20021;-73
2022/09/23 15:01:54;;;;;;;;;;;21.30;74.00;;;;;;4999961;28;20121;-74
2022/09/23 15:04:31;;;;;;;;;;;21.30;74.00;;;;;;4999256;28;20021;-75
2022/09/23 15:07:00;;;;;;;;;;;21.30;73.90;;;;;;4998970;28;19926;-74
2022/09/23 15:09:29;;;;;;;;;;;21.30;74.00;;;;;;4998746;28;20378;-78
2022/09/23 15:11:57;;;;;;;;;;;21.30;74.00;;;;;;4998873;28;20400;-77
2022/09/23 15:14:25;;;;;;;;;;;21.30;74.00;;;;;;5000066;28;20378;-78
2022/09/23 15:16:53;;;;;;;;;;;21.30;74.00;;;;;;4999092;28;19930;-78
2022/09/23 15:19:20;;;;;;;;;;;21.30;74.00;;;;;;4998376;28;20013;-78
2022/09/23 15:21:47;;;;;;;;;;;21.30;74.00;;;;;;4997228;28;19932;-77
2022/09/23 15:24:36;;;;;;;;;;;21.30;74.00;;;;;;4997105;28;20008;-78
2022/09/23 15:27:10;;;;;;;;;;;21.30;73.90;;;;;;4997789;28;19930;-78
2022/09/23 15:29:36;;;;;;;;;;;21.30;73.90;;;;;;4999841;28;19933;-79
2022/09/23 15:32:07;;;;;;;;;;;21.30;73.80;;;;;;5002026;28;19965;-80
2022/09/23 15:34:34;;;;;;;;;;;21.20;73.60;;;;;;5001135;28;19973;-78
2022/09/23 15:37:01;;;;;;;;;;;21.20;73.60;;;;;;4998175;28;19989;-78
2022/09/23 15:39:28;;;;;;;;;;;21.20;73.50;;;;;;4997462;28;20020;-78
2022/09/23 15:41:57;;;;;;;;;;;21.20;73.50;;;;;;4998702;28;19932;-78
2022/09/23 15:44:28;;;;;;;;;;;21.20;73.40;;;;;;4998767;28;19926;-78
2022/09/23 15:46:58;;;;;;;;;;;21.20;73.30;;;;;;5000003;28;19932;-79
2022/09/23 15:49:28;;;;;;;;;;;21.20;73.20;;;;;;4998826;28;19980;-78
2022/09/23 15:51:58;;;;;;;;;;;21.20;73.20;;;;;;4999384;28;19930;-78
2022/09/23 15:54:25;;;;;;;;;;;21.20;73.20;;;;;;4999556;28;19926;-80
2022/09/23 15:56:51;;;;;;;;;;;21.20;73.10;;;;;;4999728;28;19926;-80
2022/09/23 15:59:20;;;;;;;;;;;21.20;73.00;;;;;;4999307;28;19967;-79
2022/09/23 16:01:47;;;;;;;;;;;21.20;72.90;;;;;;4999257;28;19925;-80
2022/09/23 16:04:15;;;;;;;;;;;21.10;72.80;;;;;;4999134;28;19926;-80
2022/09/23 16:06:43;;;;;;;;;;;21.10;72.70;;;;;;4999768;28;19925;-79
2022/09/23 16:09:12;;;;;;;;;;;21.10;72.70;;;;;;4998792;28;19930;-79
2022/09/23 16:11:40;;;;;;;;;;;21.10;72.60;;;;;;4997982;28;19926;-79
2022/09/23 16:14:09;;;;;;;;;;;21.10;72.60;;;;;;4997853;28;19932;-79
2022/09/23 16:16:37;;;;;;;;;;;21.10;72.50;;;;;;4998113;28;19932;-79
2022/09/23 16:19:04;;;;;;;;;;;21.10;72.50;;;;;;4998234;28;19926;-79
2022/09/23 16:21:30;;;;;;;;;;;21.10;72.40;;;;;;4999544;28;20334;-80
2022/09/23 16:23:58;;;;;;;;;;;21.10;72.40;;;;;;5000041;28;19961;-78
2022/09/23 16:26:28;;;;;;;;;;;21.10;72.40;;;;;;4998010;28;20282;-79
2022/09/23 16:28:56;;;;;;;;;;;21.10;72.30;;;;;;4998006;28;19961;-80
2022/09/23 16:31:24;;;;;;;;;;;21.10;72.30;;;;;;5000148;28;19998;-81
2022/09/23 16:33:52;;;;;;;;;;;21.10;72.20;;;;;;5000879;28;19980;-81
2022/09/23 16:36:21;;;;;;;;;;;21.10;72.30;;;;;;5000744;28;20025;-80
2022/09/23 16:38:48;;;;;;;;;;;21.10;72.30;;;;;;4998288;28;20445;-79
2022/09/23 16:41:15;;;;;;;;;;;21.10;72.30;;;;;;4999432;28;20358;-79
2022/09/23 16:43:41;;;;;;;;;;;21.10;72.30;;;;;;5000211;28;20401;-80
2022/09/23 16:46:10;;;;;;;;;;;21.10;72.40;;;;;;5000049;28;20370;-79
2022/09/23 16:48:39;;;;;;;;;;;21.10;72.50;;;;;;5001691;28;19932;-80
2022/09/23 16:51:07;;;;;;;;;;;21.20;72.70;;;;;;5001911;28;19926;-79
2022/09/23 16:53:36;;;;;;;;;;;21.10;72.60;;;;;;4998714;28;19932;-79
2022/09/23 16:56:08;;;;;;;;;;;21.20;72.80;;;;;;5001407;28;20024;-80
2022/09/23 16:58:35;;;;;;;;;;;21.20;72.80;;;;;;4998813;28;19925;-79
2022/09/23 17:03:46;;;;;;;;;;;21.20;73.00;;;;;;4995271;28;19929;-78
2022/09/23 17:06:18;;;;;;;;;;;21.20;73.00;;;;;;4998606;28;20307;-78
2022/09/23 17:08:47;;;;;;;;;;;21.20;73.10;;;;;;5001696;28;19925;-79
2022/09/23 17:11:15;;;;;;;;;;;21.20;73.10;;;;;;5006180;28;19963;-79
2022/09/23 17:13:42;;;;;;;;;;;21.20;73.20;;;;;;5004996;28;19925;-79
2022/09/23 17:16:10;;;;;;;;;;;21.20;73.20;;;;;;5007312;28;19977;-80
2022/09/23 17:18:37;;;;;;;;;;;21.10;73.10;;;;;;5008149;28;19949;-81
2022/09/23 17:21:05;;;;;;;;;;;21.10;73.20;;;;;;5002245;28;19926;-79
2022/09/23 17:23:34;;;;;;;;;;;21.10;73.30;;;;;;5000774;28;19930;-78
2022/09/23 17:26:02;;;;;;;;;;;21.20;73.50;;;;;;5000613;28;19977;-78
2022/09/23 17:28:29;;;;;;;;;;;21.10;73.40;;;;;;5003370;28;19969;-79
2022/09/23 17:30:57;;;;;;;;;;;21.10;73.50;;;;;;5001618;28;19926;-78
2022/09/23 17:33:24;;;;;;;;;;;21.10;73.50;;;;;;5000655;28;19925;-78
2022/09/23 17:35:52;;;;;;;;;;;21.20;73.70;;;;;;5001303;28;20019;-79
2022/09/23 17:38:18;;;;;;;;;;;21.20;73.90;;;;;;5000258;28;19949;-78
2022/09/23 17:40:50;;;;;;;;;;;21.10;74.60;;;;;;5001114;28;19961;-80
2022/09/23 17:43:23;;;;;;;;;;;21.10;73.90;;;;;;5001006;28;20350;-80
2022/09/23 17:45:50;;;;;;;;;;;21.10;74.10;;;;;;5000629;28;19984;-79
2022/09/23 17:48:19;;;;;;;;;;;21.20;74.30;;;;;;5000145;28;20025;-79
2022/09/23 17:50:53;;;;;;;;;;;21.10;74.30;;;;;;5001422;28;19988;-78
2022/09/23 17:53:20;;;;;;;;;;;21.20;74.60;;;;;;5002651;28;19968;-76
2022/09/23 17:55:55;;;;;;;;;;;21.10;74.70;;;;;;5001397;28;19926;-78
2022/09/23 17:58:24;;;;;;;;;;;21.20;75.00;;;;;;5001486;28;19965;-79
2022/09/23 18:00:50;;;;;;;;;;;21.10;74.90;;;;;;5000987;28;20020;-77
2022/09/23 18:03:17;;;;;;;;;;;21.20;75.00;;;;;;5003455;28;20028;-79
2022/09/23 18:05:44;;;;;;;;;;;21.10;74.90;;;;;;5004361;28;20012;-75
2022/09/23 18:08:10;;;;;;;;;;;21.10;74.90;;;;;;5003684;28;20397;-78
2022/09/23 18:10:38;;;;;;;;;;;21.10;74.90;;;;;;5004453;28;19925;-78
2022/09/23 18:13:06;;;;;;;;;;;21.20;75.20;;;;;;5005024;28;19926;-78
2022/09/23 18:15:34;;;;;;;;;;;21.10;75.30;;;;;;5002228;28;19929;-76
2022/09/23 18:18:01;;;;;;;;;;;21.10;75.50;;;;;;4997821;28;20403;-78
2022/09/23 18:20:28;;;;;;;;;;;21.10;75.50;;;;;;4997739;28;19969;-75
2022/09/23 18:22:55;;;;;;;;;;;21.10;75.60;;;;;;5007295;28;20275;-79
2022/09/23 18:25:21;;;;;;;;;;;21.10;75.60;;;;;;5004353;28;20024;-77
2022/09/23 18:27:48;;;;;;;;;;;21.10;75.80;;;;;;5009025;28;20075;-76
2022/09/23 18:30:16;;;;;;;;;;;20.90;75.70;;;;;;5004573;28;20013;-81
2022/09/23 18:32:43;;;;;;;;;;;21.10;76.00;;;;;;5010180;28;20024;-80
2022/09/23 18:35:11;;;;;;;;;;;21.10;76.10;;;;;;5009505;28;19997;-78
2022/09/23 18:37:38;;;;;;;;;;;21.10;76.20;;;;;;5001417;28;19926;-77
2022/09/23 18:40:06;;;;;;;;;;;21.10;76.30;;;;;;5004556;28;19926;-78
2022/09/23 18:42:32;;;;;;;;;;;21.10;76.40;;;;;;5005472;28;19961;-78
2022/09/23 18:44:59;;;;;;;;;;;21.10;76.50;;;;;;5003941;28;19968;-79
2022/09/23 18:52:57;;;;;;;;;;;21.10;76.90;;;;;;5006187;28;20310;-80
2022/09/23 18:55:24;;;;;;;;;;;21.10;77.00;;;;;;5003645;28;19976;-81
2022/09/23 18:57:50;;;;;;;;;;;21.10;77.20;;;;;;4998672;28;19965;-76
2022/09/23 19:00:18;;;;;;;;;;;21.10;77.30;;;;;;4997853;28;20381;-76
2022/09/23 19:02:46;;;;;;;;;;;21.10;77.50;;;;;;4998178;28;19930;-77
2022/09/23 19:05:13;;;;;;;;;;;21.20;77.70;;;;;;4998326;28;19926;-76
2022/09/23 19:07:40;;;;;;;;;;;21.10;77.80;;;;;;4998128;28;19972;-76
2022/09/23 19:10:07;;;;;;;;;;;21.10;77.90;;;;;;4998229;28;19926;-76
2022/09/23 19:12:34;;;;;;;;;;;21.10;78.00;;;;;;4998654;28;20389;-77